Turkeyfoot, Pennsylvania
Current Conditions -  °F | °C
As of 3:53 AM on Tuesday 21 Oct 2014 (Local Time) from KHGR Reporting Station
Scattered Clouds Scattered Clouds  
Wind Chill: 52°   Ceiling: Unl
Heat Index: 52°   Visibility: 10mi
Dew Point: 47°   Wind: 3mph
Humidity: 83%   Direction: 270°W
Pressure: 29.86"   Gusts: NA
Location:  39.9438°N, 77.6827°W
Report Text: KHGR 210753Z AUTO 27003KT 10SM SCT090 11/08 A2986 RMK AO2 SLP120 T01110083
Loading
Personal Weather Stations






























Interactive Weather Map
Tropical Storm Tracking
New forecast layout! Learn more

10-Day Weather Forecast

Advertisements
Track Severe Weather on mobile